首页
METAR-TAF:

METAR-TAF

机场 :

戛纳, 法国

纬度: 43-33N, 经度: 006-57E, 海拔: 3米

当前天气观测

该预报发布于38分钟前的09:00 UTC
风速7节,风向,在东南南转西南之间变化
温度 22°C
湿度 73%
气压 1018 hPa
能见度10公里或以上
1500米以下无云,无积雨云

METAR: LFMD 010900Z AUTO 17007KT 140V200 CAVOK 22/17 Q1018

时间: 11:38 (09:38 UTC)


TAF: 丢失

超过4000个机场的气象观测和天气预报(METAR&TAF报告)。

可查询的气象台以黄色和红色小点在地图上表示。

将鼠标移到小点上方,可查看气象台名称。

然后点击查看天气观测和预报。

如需切换地图:点击带黑十字的绿色按钮放大地图;点击带横线的绿色按钮缩小地图;或者点击绿色箭头查看邻近地区的地图。


METAR-TAF: